createdAt,value
2023-01-07T00:01:19.298Z,3.03
2023-01-07T00:03:48.069Z,2.55
2023-01-07T00:06:24.627Z,2.92
2023-01-07T00:08:54.085Z,1.95
2023-01-07T00:11:27.677Z,3.35
2023-01-07T00:13:57.112Z,2.58
2023-01-07T00:16:27.582Z,3.63
2023-01-07T00:18:56.702Z,2.08
2023-01-07T00:21:26.075Z,1.92
2023-01-07T00:23:59.738Z,3.10
2023-01-07T00:26:31.359Z,4.60
2023-01-07T00:28:58.841Z,3.50
2023-01-07T00:31:30.750Z,2.63
2023-01-07T00:33:59.095Z,3.13
2023-01-07T00:36:32.443Z,4.25
2023-01-07T00:39:04.839Z,2.78
2023-01-07T00:41:31.935Z,4.63
2023-01-07T00:43:59.144Z,2.65
2023-01-07T00:46:26.805Z,3.63
2023-01-07T00:48:53.769Z,2.50
2023-01-07T00:51:20.743Z,5.05
2023-01-07T00:53:48.121Z,2.10
2023-01-07T00:56:17.645Z,13.43
2023-01-07T00:58:45.340Z,2.55
2023-01-07T01:01:13.559Z,1.77
2023-01-07T01:03:41.196Z,3.80
2023-01-07T01:06:14.913Z,2.40
2023-01-07T01:08:47.276Z,1.95
2023-01-07T01:11:16.887Z,2.47
2023-01-07T01:13:46.129Z,3.10
2023-01-07T01:16:18.015Z,2.33
2023-01-07T01:18:45.993Z,2.28
2023-01-07T01:21:15.929Z,2.20
2023-01-07T01:23:43.290Z,3.65
2023-01-07T01:26:14.578Z,2.15
2023-01-07T01:28:42.161Z,3.38
2023-01-07T01:31:10.701Z,2.65
2023-01-07T01:33:53.915Z,1.80
2023-01-07T01:36:23.236Z,2.33
2023-01-07T01:38:51.815Z,2.42
2023-01-07T01:41:19.150Z,2.08
2023-01-07T01:43:48.653Z,1.45
2023-01-07T01:46:34.708Z,2.95
2023-01-07T01:49:29.520Z,3.75
2023-01-07T01:52:11.512Z,1.75
2023-01-07T01:54:44.847Z,2.65
2023-01-07T01:57:11.928Z,1.85
2023-01-07T01:59:45.767Z,1.45
2023-01-07T02:02:23.041Z,2.55
2023-01-07T02:04:50.411Z,1.42
2023-01-07T02:07:18.592Z,1.30
2023-01-07T02:10:12.943Z,3.55
2023-01-07T02:13:07.220Z,1.83
2023-01-07T02:16:02.264Z,2.65
2023-01-07T02:19:04.644Z,1.23
2023-01-07T02:22:04.184Z,2.45
2023-01-07T02:24:55.662Z,1.20
2023-01-07T02:27:50.228Z,1.13
2023-01-07T02:30:47.650Z,0.82
2023-01-07T02:33:50.094Z,1.27
2023-01-07T02:36:30.427Z,1.92
2023-01-07T02:39:38.649Z,1.25
2023-01-07T02:42:37.110Z,3.25
2023-01-07T02:45:24.006Z,2.05
2023-01-07T02:47:59.846Z,2.55
2023-01-07T02:50:27.437Z,1.10
2023-01-07T02:52:54.356Z,1.17
2023-01-07T02:55:57.318Z,1.40
2023-01-07T02:58:52.252Z,2.35
2023-01-07T03:01:53.918Z,0.80
2023-01-07T03:05:03.943Z,2.33
2023-01-07T03:07:40.266Z,1.80
2023-01-07T03:10:28.652Z,1.42
2023-01-07T03:13:06.695Z,1.48
2023-01-07T03:15:51.741Z,0.98
2023-01-07T03:18:26.423Z,1.45
2023-01-07T03:21:05.809Z,1.05
2023-01-07T03:23:38.658Z,1.50
2023-01-07T03:26:07.832Z,1.13
2023-01-07T03:28:41.408Z,1.40
2023-01-07T03:31:15.734Z,1.55
2023-01-07T03:33:57.804Z,1.38
2023-01-07T03:36:41.890Z,2.85
2023-01-07T03:39:12.099Z,1.13
2023-01-07T03:41:59.886Z,1.15
2023-01-07T03:44:27.342Z,1.63
2023-01-07T03:46:54.510Z,0.93
2023-01-07T03:49:21.518Z,1.10
2023-01-07T03:51:49.451Z,2.28
2023-01-07T03:54:16.810Z,1.38
2023-01-07T03:56:43.873Z,1.65
2023-01-07T03:59:10.953Z,1.30
2023-01-07T04:01:38.487Z,1.90
2023-01-07T04:04:05.760Z,1.08
2023-01-07T04:06:33.023Z,1.17
2023-01-07T04:09:00.186Z,1.70
2023-01-07T04:11:27.901Z,2.03
2023-01-07T04:13:57.072Z,2.42
2023-01-07T04:16:24.074Z,1.00
2023-01-07T04:18:51.057Z,1.40
2023-01-07T04:21:18.269Z,1.42
2023-01-07T04:23:45.143Z,1.15
2023-01-07T04:26:12.122Z,1.52
2023-01-07T04:28:40.485Z,0.70
2023-01-07T04:31:07.938Z,0.98
2023-01-07T04:33:36.457Z,1.00
2023-01-07T04:36:04.871Z,1.48
2023-01-07T04:38:32.012Z,1.10
2023-01-07T04:40:58.928Z,1.80
2023-01-07T04:43:25.891Z,1.25
2023-01-07T04:45:54.255Z,1.65
2023-01-07T04:48:21.291Z,1.25
2023-01-07T04:50:50.914Z,2.25
2023-01-07T04:53:18.228Z,1.25
2023-01-07T04:55:46.620Z,1.10
2023-01-07T04:58:14.220Z,2.10
2023-01-07T05:00:41.583Z,0.70
2023-01-07T05:03:09.422Z,1.65
2023-01-07T05:05:37.436Z,0.93
2023-01-07T05:08:04.962Z,0.82
2023-01-07T05:10:32.946Z,0.73
2023-01-07T05:13:00.698Z,0.60
2023-01-07T05:15:27.733Z,1.00
2023-01-07T05:17:55.666Z,0.88
2023-01-07T05:20:24.628Z,0.60
2023-01-07T05:22:52.076Z,2.65
2023-01-07T05:25:19.749Z,0.95
2023-01-07T05:27:46.773Z,1.23
2023-01-07T05:30:13.962Z,0.85
2023-01-07T05:32:40.943Z,0.70
2023-01-07T05:35:09.050Z,1.55
2023-01-07T05:37:36.735Z,1.20
2023-01-07T05:40:06.846Z,2.00
2023-01-07T05:42:34.033Z,1.10
2023-01-07T05:45:01.023Z,1.55
2023-01-07T05:47:27.908Z,1.50
2023-01-07T05:49:54.893Z,1.27
2023-01-07T05:52:21.905Z,2.05
2023-01-07T05:54:48.825Z,1.48
2023-01-07T05:57:15.735Z,1.48
2023-01-07T05:59:42.649Z,1.05
2023-01-07T06:02:09.532Z,1.80
2023-01-07T06:04:36.475Z,0.60
2023-01-07T06:07:03.564Z,2.55
2023-01-07T06:09:30.422Z,2.05
2023-01-07T06:11:57.814Z,0.90
2023-01-07T06:14:24.717Z,4.53
2023-01-07T06:16:51.667Z,1.08
2023-01-07T06:19:18.695Z,0.65
2023-01-07T06:21:45.540Z,0.63
2023-01-07T06:24:12.466Z,0.45
2023-01-07T06:26:39.336Z,0.75
2023-01-07T06:29:07.152Z,0.85
2023-01-07T06:31:34.137Z,0.70
2023-01-07T06:34:01.199Z,0.70
2023-01-07T06:36:28.107Z,1.10
2023-01-07T06:38:55.010Z,1.02
2023-01-07T06:41:21.974Z,0.68
2023-01-07T06:43:48.840Z,0.63
2023-01-07T06:46:15.994Z,1.00
2023-01-07T06:48:42.914Z,0.63
2023-01-07T06:51:09.795Z,1.27
2023-01-07T06:53:36.692Z,1.33
2023-01-07T06:56:03.672Z,4.88
2023-01-07T06:58:30.599Z,2.45
2023-01-07T07:00:57.610Z,2.42
2023-01-07T07:03:24.714Z,2.58
2023-01-07T07:05:51.590Z,1.95
2023-01-07T07:08:18.604Z,2.22
2023-01-07T07:10:45.457Z,2.47
2023-01-07T07:13:12.467Z,2.55
2023-01-07T07:15:39.396Z,1.40
2023-01-07T07:18:06.352Z,2.03
2023-01-07T07:20:33.468Z,2.97
2023-01-07T07:23:01.626Z,1.60
2023-01-07T07:25:29.025Z,1.73
2023-01-07T07:27:55.881Z,1.50
2023-01-07T07:30:22.770Z,1.20
2023-01-07T07:33:09.660Z,2.60
2023-01-07T07:35:36.597Z,2.03
2023-01-07T07:38:03.539Z,2.33
2023-01-07T07:40:30.385Z,1.38
2023-01-07T07:43:12.371Z,1.75
2023-01-07T07:45:43.348Z,1.52
2023-01-07T07:48:13.715Z,2.00
2023-01-07T07:50:40.676Z,1.20
2023-01-07T07:53:10.182Z,1.63
2023-01-07T07:55:38.723Z,1.75
2023-01-07T07:58:06.859Z,1.50
2023-01-07T08:00:33.891Z,1.95
2023-01-07T08:03:01.600Z,2.13
2023-01-07T08:05:29.047Z,2.17
2023-01-07T08:07:56.663Z,1.73
2023-01-07T08:10:27.410Z,2.55
2023-01-07T08:12:54.484Z,2.08
2023-01-07T08:15:21.397Z,2.25
2023-01-07T08:17:48.371Z,1.80
2023-01-07T08:20:15.308Z,2.38
2023-01-07T08:22:42.215Z,1.83
2023-01-07T08:25:09.624Z,2.03
2023-01-07T08:27:36.488Z,2.42
2023-01-07T08:30:03.690Z,3.30
2023-01-07T08:32:30.600Z,1.77
2023-01-07T08:34:57.787Z,2.33
2023-01-07T08:37:24.678Z,1.52
2023-01-07T08:39:51.668Z,2.85
2023-01-07T08:42:18.568Z,3.85
2023-01-07T08:44:45.514Z,1.70
2023-01-07T08:47:12.458Z,2.95
2023-01-07T08:49:39.544Z,3.25
2023-01-07T08:52:06.770Z,3.05
2023-01-07T08:54:33.689Z,4.53
2023-01-07T08:57:00.656Z,2.33
2023-01-07T08:59:27.546Z,3.65
2023-01-07T09:01:54.624Z,5.60
2023-01-07T09:04:21.740Z,4.60
2023-01-07T09:06:48.794Z,3.60
2023-01-07T09:09:16.613Z,3.80
2023-01-07T09:11:43.800Z,3.38
2023-01-07T09:14:10.671Z,3.90
2023-01-07T09:16:37.603Z,4.00
2023-01-07T09:19:04.644Z,3.50
2023-01-07T09:21:31.606Z,4.00
2023-01-07T09:23:58.527Z,4.28
2023-01-07T09:26:25.813Z,4.60
2023-01-07T09:28:52.708Z,4.05
2023-01-07T09:31:19.733Z,3.90
2023-01-07T09:33:46.698Z,3.38
2023-01-07T09:36:13.619Z,3.85
2023-01-07T09:38:40.630Z,3.95
2023-01-07T09:41:53.317Z,3.42
2023-01-07T09:44:45.711Z,4.80
2023-01-07T09:47:19.407Z,4.40
2023-01-07T09:49:52.091Z,3.58
2023-01-07T09:52:29.688Z,4.85
2023-01-07T09:55:23.771Z,3.30
2023-01-07T09:57:51.116Z,3.22
2023-01-07T10:00:23.769Z,3.08
2023-01-07T10:02:59.803Z,3.55
2023-01-07T10:05:49.426Z,3.35
2023-01-07T10:08:51.751Z,3.38
2023-01-07T10:11:44.107Z,5.15
2023-01-07T10:14:43.974Z,19.90
2023-01-07T10:17:48.798Z,9.60
2023-01-07T10:20:47.137Z,7.90
2023-01-07T10:23:21.892Z,5.40
2023-01-07T10:25:53.627Z,62.45
2023-01-07T10:28:40.239Z,4.93
2023-01-07T10:31:17.807Z,3.00
2023-01-07T10:33:48.323Z,2.38
2023-01-07T10:36:46.325Z,2.33
2023-01-07T10:40:00.755Z,2.83
2023-01-07T10:42:45.900Z,2.03
2023-01-07T10:45:37.073Z,2.38
2023-01-07T10:48:34.472Z,3.40
2023-01-07T10:51:23.624Z,3.78
2023-01-07T10:54:07.505Z,1.52
2023-01-07T10:56:43.203Z,3.22
2023-01-07T10:59:20.929Z,3.47
2023-01-07T11:01:58.856Z,3.13
2023-01-07T11:04:26.612Z,2.75
2023-01-07T11:07:08.315Z,2.95
2023-01-07T11:09:42.444Z,2.58
2023-01-07T11:12:55.590Z,3.03
2023-01-07T11:15:44.014Z,3.05
2023-01-07T11:18:47.213Z,2.72
2023-01-07T11:21:43.191Z,2.95
2023-01-07T11:24:32.871Z,2.83
2023-01-07T11:27:23.435Z,2.38
2023-01-07T11:30:28.376Z,3.03
2023-01-07T11:33:13.877Z,3.33
2023-01-07T11:35:55.832Z,3.85
2023-01-07T11:38:32.872Z,3.67
2023-01-07T11:41:01.768Z,3.30
2023-01-07T11:43:39.657Z,4.20
2023-01-07T11:46:21.441Z,3.13
2023-01-07T11:49:00.632Z,3.63
2023-01-07T11:51:40.356Z,4.03
2023-01-07T11:54:24.974Z,3.65
2023-01-07T11:56:55.114Z,2.70
2023-01-07T11:59:29.241Z,2.67
2023-01-07T12:01:59.872Z,3.92
2023-01-07T12:04:34.204Z,2.72
2023-01-07T12:07:07.940Z,2.90
2023-01-07T12:09:39.392Z,3.42
2023-01-07T12:16:09.197Z,4.30
2023-01-07T12:18:54.500Z,3.03
2023-01-07T12:21:35.631Z,3.90
2023-01-07T12:24:31.444Z,4.43
2023-01-07T12:27:36.079Z,5.30
2023-01-07T12:30:30.523Z,3.70
2023-01-07T12:33:02.748Z,4.45
2023-01-07T12:35:48.325Z,3.97
2023-01-07T12:38:21.190Z,5.57
2023-01-07T12:41:02.596Z,5.78
2023-01-07T12:43:40.524Z,4.60
2023-01-07T12:46:14.741Z,4.82
2023-01-07T12:52:25.022Z,7.18
2023-01-07T12:55:03.387Z,5.28
2023-01-07T12:57:42.166Z,4.32
2023-01-07T13:00:19.178Z,4.03
2023-01-07T13:03:23.651Z,4.70
2023-01-07T13:06:05.861Z,4.75
2023-01-07T13:08:45.628Z,4.90
2023-01-07T13:12:40.858Z,5.07
2023-01-07T13:15:16.571Z,2.83
2023-01-07T13:17:43.832Z,5.97
2023-01-07T13:20:17.595Z,4.13
2023-01-07T13:22:56.365Z,4.57
2023-01-07T13:26:10.013Z,4.00
2023-01-07T13:29:08.020Z,3.88
2023-01-07T13:32:04.311Z,3.97
2023-01-07T13:35:10.716Z,3.92
2023-01-07T13:40:54.878Z,4.35
2023-01-07T13:43:56.919Z,4.07
2023-01-07T13:46:34.087Z,2.30
2023-01-07T13:49:01.560Z,2.85
2023-01-07T13:51:36.313Z,1.80
2023-01-07T13:54:05.886Z,1.48
2023-01-07T13:56:39.150Z,1.25
2023-01-07T13:59:31.040Z,1.40
2023-01-07T14:02:21.763Z,2.10
2023-01-07T14:05:25.257Z,1.75
2023-01-07T14:07:59.381Z,2.95
2023-01-07T14:10:35.035Z,1.53
2023-01-07T14:13:43.243Z,1.77
2023-01-07T14:16:23.439Z,1.33
2023-01-07T14:19:20.915Z,1.80
2023-01-07T14:22:17.041Z,2.25
2023-01-07T14:25:08.291Z,1.90
2023-01-07T14:27:53.561Z,2.78
2023-01-07T14:30:34.646Z,3.17
2023-01-07T14:33:05.636Z,2.78
2023-01-07T14:35:42.206Z,2.15
2023-01-07T14:38:34.199Z,1.95
2023-01-07T14:41:03.984Z,1.55
2023-01-07T14:43:45.989Z,1.65
2023-01-07T14:46:28.109Z,1.48
2023-01-07T14:49:03.841Z,1.83
2023-01-07T14:51:59.627Z,1.10
2023-01-07T14:54:44.910Z,1.25
2023-01-07T14:57:58.174Z,1.05
2023-01-07T15:01:09.792Z,1.35
2023-01-07T15:03:49.257Z,1.50
2023-01-07T15:06:35.061Z,3.63
2023-01-07T15:09:39.258Z,3.67
2023-01-07T15:12:38.215Z,6.85
2023-01-07T15:15:28.699Z,6.25
2023-01-07T15:17:56.973Z,5.75
2023-01-07T15:20:42.510Z,4.45
2023-01-07T15:23:56.322Z,4.28
2023-01-07T15:27:19.823Z,4.25
2023-01-07T15:30:44.078Z,5.85
2023-01-07T15:33:42.911Z,6.40
2023-01-07T15:36:27.432Z,5.93
2023-01-07T15:39:28.568Z,18.75
2023-01-07T15:41:59.160Z,14.23
2023-01-07T15:44:59.099Z,10.77
2023-01-07T15:47:42.191Z,7.68
2023-01-07T15:50:33.889Z,8.02
2023-01-07T15:56:21.085Z,6.47
2023-01-07T15:58:50.320Z,6.60
2023-01-07T16:01:24.822Z,7.43
2023-01-07T16:03:57.186Z,7.45
2023-01-07T16:06:40.025Z,6.90
2023-01-07T16:09:19.806Z,7.93
2023-01-07T16:11:47.090Z,7.90
2023-01-07T16:14:26.402Z,7.32
2023-01-07T16:17:15.676Z,6.82
2023-01-07T16:19:43.028Z,9.45
2023-01-07T16:22:17.423Z,7.93
2023-01-07T16:24:53.551Z,12.65
2023-01-07T16:27:30.483Z,8.60
2023-01-07T16:30:02.057Z,7.63
2023-01-07T16:32:29.347Z,6.63
2023-01-07T16:35:14.409Z,7.63
2023-01-07T16:37:41.901Z,10.25
2023-01-07T16:40:36.071Z,7.78
2023-01-07T16:43:04.599Z,7.82
2023-01-07T16:45:41.999Z,8.07
2023-01-07T16:48:19.896Z,7.55
2023-01-07T16:50:48.998Z,11.98
2023-01-07T16:53:29.989Z,9.45
2023-01-07T16:56:16.255Z,10.90
2023-01-07T16:58:55.614Z,7.30
2023-01-07T17:01:33.751Z,9.45
2023-01-07T17:04:08.150Z,8.60
2023-01-07T17:06:43.613Z,8.10
2023-01-07T17:09:24.049Z,7.50
2023-01-07T17:11:53.193Z,7.72
2023-01-07T17:14:38.123Z,9.27
2023-01-07T17:17:18.285Z,9.10
2023-01-07T17:20:00.454Z,9.70
2023-01-07T17:22:39.511Z,10.75
2023-01-07T17:25:30.353Z,9.23
2023-01-07T17:28:07.570Z,7.38
2023-01-07T17:30:37.030Z,7.68
2023-01-07T17:33:04.571Z,7.28
2023-01-07T17:35:31.592Z,7.50
2023-01-07T17:37:58.502Z,7.00
2023-01-07T17:40:25.529Z,7.20
2023-01-07T17:43:11.380Z,9.43
2023-01-07T17:45:38.520Z,7.70
2023-01-07T17:48:15.677Z,8.70
2023-01-07T17:50:43.735Z,8.07
2023-01-07T17:53:23.569Z,9.82
2023-01-07T17:55:50.485Z,7.35
2023-01-07T17:58:35.420Z,7.93
2023-01-07T18:01:08.493Z,12.05
2023-01-07T18:03:36.279Z,10.45
2023-01-07T18:06:18.933Z,10.05
2023-01-07T18:08:48.016Z,12.65
2023-01-07T18:11:46.363Z,12.45
2023-01-07T18:14:18.875Z,11.98
2023-01-07T18:16:46.192Z,9.48
2023-01-07T18:19:15.029Z,12.57
2023-01-07T18:21:45.498Z,11.65
2023-01-07T18:24:20.596Z,13.65
2023-01-07T18:26:48.054Z,14.73
2023-01-07T18:29:15.127Z,11.18
2023-01-07T18:31:44.762Z,13.15
2023-01-07T18:34:14.792Z,13.55
2023-01-07T18:36:42.562Z,13.30
2023-01-07T18:39:19.246Z,13.65
2023-01-07T18:41:49.994Z,11.13
2023-01-07T18:44:18.942Z,11.02
2023-01-07T18:46:46.084Z,9.85
2023-01-07T18:49:13.370Z,10.23
2023-01-07T18:51:40.433Z,10.70
2023-01-07T18:54:07.434Z,9.30
2023-01-07T18:56:34.328Z,14.15
2023-01-07T18:59:01.218Z,13.52
2023-01-07T19:01:28.269Z,11.48
2023-01-07T19:03:55.559Z,9.20
2023-01-07T19:06:22.438Z,9.63
2023-01-07T19:08:49.329Z,11.80
2023-01-07T19:11:16.339Z,11.00
2023-01-07T19:13:43.220Z,10.70
2023-01-07T19:16:12.942Z,8.13
2023-01-07T19:18:40.484Z,9.07
2023-01-07T19:21:11.942Z,9.57
2023-01-07T19:23:40.420Z,9.38
2023-01-07T19:26:11.320Z,11.07
2023-01-07T19:28:38.250Z,8.50
2023-01-07T19:31:08.108Z,7.95
2023-01-07T19:33:35.738Z,8.13
2023-01-07T19:36:09.602Z,8.73
2023-01-07T19:38:48.534Z,9.63
2023-01-07T19:41:19.152Z,8.30
2023-01-07T19:43:47.580Z,7.78
2023-01-07T19:46:17.335Z,7.80
2023-01-07T19:48:47.758Z,10.30
2023-01-07T19:51:15.557Z,9.30
2023-01-07T19:53:42.648Z,8.30
2023-01-07T19:56:12.424Z,7.72
2023-01-07T19:58:44.118Z,9.30
2023-01-07T20:01:15.338Z,9.77
2023-01-07T20:03:43.388Z,7.35
2023-01-07T20:06:13.922Z,8.18
2023-01-07T20:08:41.459Z,11.05
2023-01-07T20:11:08.931Z,11.60
2023-01-07T20:13:37.825Z,11.27
2023-01-07T20:16:14.685Z,9.07
2023-01-07T20:18:49.017Z,8.98
2023-01-07T20:21:20.189Z,9.73
2023-01-07T20:23:47.875Z,8.30
2023-01-07T20:26:25.654Z,8.95
2023-01-07T20:28:53.222Z,9.75
2023-01-07T20:31:22.800Z,17.08
2023-01-07T20:33:50.484Z,9.05
2023-01-07T20:36:21.692Z,9.80
2023-01-07T20:38:48.790Z,9.50
2023-01-07T20:41:23.206Z,11.50
2023-01-07T20:43:56.447Z,8.48
2023-01-07T20:46:26.097Z,9.77
2023-01-07T20:48:54.389Z,9.48
2023-01-07T20:51:21.770Z,8.88
2023-01-07T20:53:49.358Z,9.02
2023-01-07T20:56:19.995Z,11.07
2023-01-07T20:58:49.056Z,8.43
2023-01-07T21:01:20.692Z,11.27
2023-01-07T21:03:48.461Z,9.73
2023-01-07T21:06:18.570Z,9.75
2023-01-07T21:08:47.664Z,10.65
2023-01-07T21:11:19.596Z,9.77
2023-01-07T21:13:47.731Z,11.93
2023-01-07T21:16:15.470Z,8.18
2023-01-07T21:18:42.921Z,11.98
2023-01-07T21:21:20.944Z,10.65
2023-01-07T21:23:49.374Z,9.18
2023-01-07T21:26:17.818Z,10.38
2023-01-07T21:28:45.541Z,9.50
2023-01-07T21:31:15.843Z,11.70
2023-01-07T21:33:44.630Z,10.80
2023-01-07T21:36:18.539Z,14.30
2023-01-07T21:38:46.891Z,12.82
2023-01-07T21:41:16.803Z,14.90
2023-01-07T21:43:44.989Z,13.77
2023-01-07T21:46:12.920Z,16.80
2023-01-07T21:48:46.439Z,20.85
2023-01-07T21:51:26.226Z,22.02
2023-01-07T21:53:56.054Z,23.40
2023-01-07T21:56:26.733Z,20.42
2023-01-07T21:58:53.699Z,20.60
2023-01-07T22:01:28.341Z,18.38
2023-01-07T22:03:57.246Z,22.25
2023-01-07T22:06:31.589Z,23.20
2023-01-07T22:09:04.788Z,20.98
2023-01-07T22:11:33.663Z,16.67
2023-01-07T22:14:01.695Z,17.73
2023-01-07T22:16:31.801Z,17.63
2023-01-07T22:18:59.605Z,15.68
2023-01-07T22:21:26.636Z,16.88
2023-01-07T22:23:53.693Z,15.85
2023-01-07T22:26:21.401Z,17.15
2023-01-07T22:29:02.607Z,16.20
2023-01-07T22:31:34.135Z,15.38
2023-01-07T22:34:01.067Z,16.88
2023-01-07T22:36:52.553Z,16.70
2023-01-07T22:39:32.271Z,15.93
2023-01-07T22:42:08.303Z,16.67
2023-01-07T22:44:43.627Z,12.70
2023-01-07T22:47:15.817Z,13.15
2023-01-07T22:49:43.044Z,15.20
2023-01-07T22:52:11.718Z,14.80
2023-01-07T22:54:39.980Z,15.35
2023-01-07T22:57:10.859Z,14.88
2023-01-07T22:59:38.289Z,14.77
2023-01-07T23:02:05.998Z,15.05
2023-01-07T23:04:33.163Z,15.50
2023-01-07T23:07:00.132Z,14.48
2023-01-07T23:09:27.105Z,15.57
2023-01-07T23:11:59.263Z,13.70
2023-01-07T23:14:28.872Z,14.38
2023-01-07T23:16:56.792Z,15.13
2023-01-07T23:19:24.039Z,12.38
2023-01-07T23:21:54.108Z,14.43
2023-01-07T23:24:22.468Z,14.02
2023-01-07T23:26:52.635Z,14.10
2023-01-07T23:29:20.668Z,13.90
2023-01-07T23:31:48.133Z,14.50
2023-01-07T23:34:16.309Z,13.93
2023-01-07T23:36:43.359Z,13.32
2023-01-07T23:39:10.357Z,14.90
2023-01-07T23:41:37.393Z,13.02
2023-01-07T23:44:04.534Z,14.70
2023-01-07T23:46:32.236Z,16.02
2023-01-07T23:48:59.139Z,13.88
2023-01-07T23:51:26.194Z,13.55
2023-01-07T23:53:53.642Z,15.13
2023-01-07T23:56:22.090Z,13.63
2023-01-07T23:58:50.054Z,13.50
